Time;durP1;ratioP1;P1;durP2;ratioP2;P2;SDS_P1;SDS_P2;PMS_P1;PMS_P2;Temp;Humidity;BMP_temperature;BMP_pressure;BME280_temperature;BME280_humidity;BME280_pressure;Samples;Min_cycle;Max_cycle;Signal;HPM_P1;HPM_P2
2022/08/04 00:02:03;;;;;;;4.05;1.60;;;28.60;72.20;;;;;;1908056;75;21122;-82
2022/08/04 00:04:58;;;;;;;3.05;1.42;;;28.50;73.00;;;;;;1895497;75;21110;-82
2022/08/04 00:07:53;;;;;;;2.50;1.70;;;28.40;73.10;;;;;;1909832;75;21185;-82
2022/08/04 00:10:48;;;;;;;2.00;1.80;;;28.40;73.40;;;;;;1884799;76;21090;-82
2022/08/04 00:16:21;;;;;;;1.87;1.77;;;28.20;74.80;;;;;;1926036;72;22705;-81
2022/08/04 00:19:16;;;;;;;3.70;2.00;;;28.20;74.60;;;;;;1906341;74;21777;-82
2022/08/04 00:22:10;;;;;;;3.77;2.10;;;28.30;74.70;;;;;;1891877;75;21139;-82
2022/08/04 00:25:04;;;;;;;2.12;1.57;;;28.30;74.90;;;;;;1904868;74;21159;-82
2022/08/04 00:30:34;;;;;;;3.60;1.85;;;28.10;75.50;;;;;;1931094;72;22256;-81
2022/08/04 00:33:29;;;;;;;3.37;1.70;;;28.20;75.50;;;;;;1891544;75;21106;-81
2022/08/04 00:36:20;;;;;;;2.90;1.52;;;28.30;75.60;;;;;;1901684;75;21090;-81
2022/08/04 00:39:14;;;;;;;3.98;1.80;;;28.40;75.20;;;;;;1887193;75;21643;-81
2022/08/04 00:42:36;;;;;;;2.17;1.72;;;28.40;75.40;;;;;;1892538;75;21090;-82
2022/08/04 00:46:04;;;;;;;3.42;1.42;;;28.30;75.30;;;;;;1896417;75;21059;-82
2022/08/04 00:49:19;;;;;;;1.70;1.60;;;28.20;75.70;;;;;;1907743;75;21175;-82
2022/08/04 00:52:19;;;;;;;3.02;1.57;;;28.10;75.90;;;;;;1897425;75;21102;-81
2022/08/04 00:56:01;;;;;;;4.85;1.55;;;28.00;76.20;;;;;;1905041;75;21107;-81
2022/08/04 00:59:09;;;;;;;3.08;1.62;;;27.90;76.40;;;;;;1881252;75;21087;-81
2022/08/04 01:02:03;;;;;;;1.70;1.50;;;27.80;76.70;;;;;;1891453;75;21079;-81
2022/08/04 01:05:06;;;;;;;2.83;1.70;;;27.80;77.00;;;;;;1901153;75;21724;-81
2022/08/04 01:10:49;;;;;;;4.45;1.90;;;27.60;77.30;;;;;;1936983;72;22207;-81
2022/08/04 01:13:57;;;;;;;4.10;1.82;;;27.60;77.90;;;;;;1886904;75;21156;-81
2022/08/04 01:16:52;;;;;;;3.55;1.52;;;27.40;78.40;;;;;;1888565;75;21121;-81
2022/08/04 01:20:01;;;;;;;6.33;1.82;;;27.30;78.90;;;;;;1903918;75;21569;-81
2022/08/04 01:23:29;;;;;;;1.82;1.65;;;27.20;79.20;;;;;;1899111;75;21503;-81
2022/08/04 01:29:10;;;;;;;1.65;1.47;;;27.00;80.20;;;;;;1924458;72;22227;-81
2022/08/04 01:32:04;;;;;;;4.83;1.95;;;27.00;80.60;;;;;;1897089;75;21126;-81
2022/08/04 01:34:59;;;;;;;2.30;1.70;;;26.90;81.40;;;;;;1907241;75;21136;-81
2022/08/04 01:37:54;;;;;;;7.22;1.67;;;26.90;81.90;;;;;;1896527;75;21191;-81
2022/08/04 01:40:46;;;;;;;3.67;1.45;;;26.90;81.70;;;;;;1891419;75;21108;-81
2022/08/04 01:43:40;;;;;;;1.82;1.50;;;26.90;81.30;;;;;;1906275;75;21146;-81
2022/08/04 01:46:33;;;;;;;3.65;1.60;;;27.00;81.10;;;;;;1908845;74;21066;-81
2022/08/04 01:49:27;;;;;;;2.05;1.40;;;27.00;81.00;;;;;;1907829;75;21170;-81
2022/08/04 01:52:21;;;;;;;2.58;1.87;;;27.00;81.50;;;;;;1912281;75;21162;-81
2022/08/04 01:55:14;;;;;;;4.72;1.95;;;26.80;83.20;;;;;;1909012;75;21126;-81
2022/08/04 02:00:48;;;;;;;3.08;2.27;;;26.70;84.50;;;;;;1952829;72;22114;-81
2022/08/04 02:03:47;;;;;;;2.80;2.20;;;26.60;85.90;;;;;;1899770;75;21627;-81
2022/08/04 02:06:43;;;;;;;4.40;2.20;;;26.40;86.00;;;;;;1889666;75;21059;-82
2022/08/04 02:09:40;;;;;;;3.30;2.10;;;26.40;86.80;;;;;;1908900;75;21216;-82
2022/08/04 02:12:46;;;;;;;3.05;1.72;;;26.30;88.30;;;;;;1914708;75;21110;-82
2022/08/04 02:15:42;;;;;;;2.12;1.92;;;26.20;88.40;;;;;;1892536;75;21547;-82
2022/08/04 02:21:19;;;;;;;5.12;1.98;;;26.20;90.30;;;;;;1935170;72;22212;-81
2022/08/04 02:24:17;;;;;;;6.10;2.10;;;26.10;90.40;;;;;;1911764;75;21101;-81
2022/08/04 02:27:11;;;;;;;2.20;1.47;;;26.10;90.50;;;;;;1894603;75;21122;-82
2022/08/04 02:30:05;;;;;;;2.83;2.05;;;26.10;90.50;;;;;;1897269;75;21522;-81
2022/08/04 02:32:59;;;;;;;3.22;1.70;;;26.00;90.90;;;;;;1885728;75;21109;-82
2022/08/04 02:41:23;;;;;;;2.85;1.70;;;25.80;92.60;;;;;;1957255;72;22463;-82
2022/08/04 02:44:16;;;;;;;6.22;2.37;;;25.70;93.10;;;;;;1920053;73;21121;-82
2022/08/04 02:47:09;;;;;;;3.00;2.08;;;25.80;93.30;;;;;;1914505;75;21146;-82
2022/08/04 02:50:01;;;;;;;3.80;2.20;;;25.80;93.40;;;;;;1917760;73;21143;-82
2022/08/04 02:52:54;;;;;;;2.70;2.00;;;25.80;93.90;;;;;;1935474;73;21068;-82
2022/08/04 02:55:48;;;;;;;4.83;2.10;;;25.80;94.20;;;;;;1928288;73;21055;-82
2022/08/04 02:58:42;;;;;;;2.62;1.82;;;25.90;93.90;;;;;;1924380;73;21054;-82
2022/08/04 03:01:34;;;;;;;2.45;2.20;;;26.00;93.90;;;;;;1916544;73;21059;-82
2022/08/04 03:07:33;;;;;;;3.33;1.85;;;25.80;96.10;;;;;;1930950;72;22142;-82
2022/08/04 03:10:50;;;;;;;3.25;1.75;;;25.60;97.10;;;;;;1918997;74;21110;-83
2022/08/04 03:13:59;;;;;;;4.58;2.17;;;25.40;97.90;;;;;;1884870;75;21113;-83
2022/08/04 03:17:38;;;;;;;2.45;1.95;;;25.40;98.10;;;;;;1901757;75;21168;-82
2022/08/04 03:21:16;;;;;;;4.03;2.08;;;25.40;98.20;;;;;;1889369;75;21079;-82
2022/08/04 03:24:45;;;;;;;2.45;1.90;;;25.50;99.00;;;;;;1887040;75;21052;-82
2022/08/04 03:28:16;;;;;;;2.58;1.92;;;25.40;99.50;;;;;;1898550;75;21138;-82
2022/08/04 03:31:14;;;;;;;3.77;1.87;;;25.50;99.20;;;;;;1884975;75;21601;-81
2022/08/04 03:34:18;;;;;;;5.20;2.15;;;25.60;98.90;;;;;;1890820;75;21059;-82
2022/08/04 03:37:47;;;;;;;4.47;1.90;;;25.70;99.20;;;;;;1883354;75;21050;-82
2022/08/04 03:43:59;;;;;;;3.15;1.90;;;25.60;99.90;;;;;;1941225;72;22132;-82
2022/08/04 03:47:15;;;;;;;2.25;1.95;;;25.50;99.90;;;;;;1917741;75;21099;-82
2022/08/04 03:50:43;;;;;;;2.90;2.30;;;25.60;99.90;;;;;;1917721;75;21103;-80
2022/08/04 03:53:46;;;;;;;4.03;2.10;;;25.70;99.90;;;;;;1917661;75;21140;-83
2022/08/04 03:56:57;;;;;;;4.97;2.35;;;25.80;99.70;;;;;;1930976;73;21560;-82
2022/08/04 04:03:17;;;;;;;2.55;1.92;;;25.90;99.90;;;;;;1934451;72;22137;-82
2022/08/04 04:06:36;;;;;;;3.37;2.02;;;25.90;99.90;;;;;;1893932;75;21063;-82
2022/08/04 04:09:53;;;;;;;3.17;1.92;;;25.90;99.90;;;;;;1907618;75;21144;-81
2022/08/04 04:19:30;;;;;;;2.72;1.72;;;25.40;99.90;;;;;;1943656;72;22209;-84
2022/08/04 04:22:36;;;;;;;2.87;2.22;;;25.40;99.90;;;;;;1906954;75;21117;-84
2022/08/04 04:25:39;;;;;;;5.17;2.30;;;25.50;99.90;;;;;;1910720;75;21194;-83
2022/08/04 04:28:41;;;;;;;5.60;2.15;;;25.50;99.90;;;;;;1884535;75;21075;-92
2022/08/04 04:31:49;;;;;;;3.92;2.12;;;25.50;99.90;;;;;;1885591;75;21119;-91
2022/08/04 04:34:49;;;;;;;5.00;2.15;;;25.50;99.90;;;;;;1899819;75;21051;-89
2022/08/04 04:37:53;;;;;;;2.50;2.10;;;25.60;99.90;;;;;;1888209;75;21185;-88
2022/08/04 04:40:50;;;;;;;3.47;2.20;;;25.60;99.90;;;;;;1911969;75;21176;-94
2022/08/04 04:44:25;;;;;;;5.92;2.33;;;25.60;99.90;;;;;;1885994;75;21050;-93
2022/08/04 04:47:21;;;;;;;4.72;2.05;;;25.70;99.90;;;;;;1855767;75;21176;-95
2022/08/04 04:50:16;;;;;;;4.35;2.52;;;25.80;99.90;;;;;;1887944;76;21136;-96
2022/08/04 04:53:13;;;;;;;2.20;2.00;;;25.90;99.90;;;;;;1887728;76;21118;-96
2022/08/04 04:56:08;;;;;;;3.92;2.10;;;26.00;99.90;;;;;;1887849;76;21051;-95
2022/08/04 04:59:01;;;;;;;3.15;2.12;;;26.00;99.90;;;;;;1886882;76;21109;-95
2022/08/04 05:02:18;;;;;;;3.60;2.25;;;26.00;99.90;;;;;;1886298;76;21124;-96
2022/08/04 05:05:30;;;;;;;3.58;2.17;;;26.00;99.90;;;;;;1907308;75;21608;-94
2022/08/04 05:08:38;;;;;;;4.00;1.87;;;26.10;99.90;;;;;;1876179;76;21122;-95
2022/08/04 05:11:56;;;;;;;3.37;2.00;;;26.00;99.90;;;;;;1920463;75;21169;-84
2022/08/04 05:14:50;;;;;;;3.87;2.70;;;26.10;99.90;;;;;;1891458;75;21150;-87
2022/08/04 05:17:43;;;;;;;3.95;2.20;;;26.10;99.90;;;;;;1887298;75;21135;-87
2022/08/04 05:20:38;;;;;;;2.55;2.25;;;26.20;99.90;;;;;;1856707;77;21062;-87
2022/08/04 05:23:38;;;;;;;3.83;2.00;;;26.20;99.90;;;;;;1906085;74;21118;-87
2022/08/04 05:26:34;;;;;;;3.65;2.17;;;26.20;99.90;;;;;;1841939;77;21153;-78
2022/08/04 05:29:30;;;;;;;8.73;2.62;;;26.30;99.90;;;;;;1913679;74;21093;-77
2022/08/04 05:32:29;;;;;;;11.95;2.67;;;26.40;99.90;;;;;;1845756;77;21069;-77
2022/08/04 05:35:26;;;;;;;5.55;2.27;;;26.40;99.90;;;;;;1919730;74;21085;-77
2022/08/04 05:38:22;;;;;;;5.90;2.40;;;26.20;99.90;;;;;;1931507;74;21636;-76
2022/08/04 05:41:15;;;;;;;5.72;2.27;;;26.10;99.90;;;;;;1920481;74;21122;-77
2022/08/04 05:44:11;;;;;;;6.28;2.35;;;26.20;99.90;;;;;;1843365;77;21608;-77
2022/08/04 05:47:03;;;;;;;8.08;2.77;;;26.20;99.90;;;;;;1899653;74;21057;-77
2022/08/04 05:49:56;;;;;;;7.95;2.55;;;26.30;99.90;;;;;;1878023;76;21117;-77
2022/08/04 05:52:51;;;;;;;13.08;2.90;;;26.40;99.90;;;;;;1853176;77;21246;-77
2022/08/04 05:55:45;;;;;;;6.20;2.60;;;26.30;99.90;;;;;;1868394;76;21083;-77
2022/08/04 05:58:39;;;;;;;6.17;2.20;;;26.20;99.90;;;;;;1861961;76;21200;-77
2022/08/04 06:01:31;;;;;;;4.78;2.42;;;26.20;99.90;;;;;;1861384;76;21132;-77
2022/08/04 06:04:26;;;;;;;5.25;2.50;;;26.20;99.90;;;;;;1857726;76;21139;-77
2022/08/04 06:07:18;;;;;;;5.53;2.33;;;26.20;99.90;;;;;;1867995;76;21158;-77
2022/08/04 06:10:11;;;;;;;8.13;2.75;;;26.20;99.90;;;;;;1848417;76;21121;-77
2022/08/04 06:13:05;;;;;;;5.37;2.25;;;26.10;99.90;;;;;;1845974;77;21169;-77
2022/08/04 06:15:58;;;;;;;6.42;2.40;;;26.10;99.90;;;;;;1846065;76;21506;-76
2022/08/04 06:18:56;;;;;;;5.17;2.30;;;26.10;99.90;;;;;;1860800;76;21169;-77
2022/08/04 06:21:51;;;;;;;4.60;2.70;;;26.10;99.90;;;;;;1835475;77;21221;-78
2022/08/04 06:24:51;;;;;;;9.05;2.98;;;26.10;99.90;;;;;;1879650;75;21628;-78
2022/08/04 06:27:44;;;;;;;8.10;2.90;;;26.10;99.90;;;;;;1881080;75;21099;-77
2022/08/04 06:30:36;;;;;;;4.53;2.72;;;26.10;99.90;;;;;;1883933;75;21518;-77
2022/08/04 06:36:07;;;;;;;6.10;2.35;;;26.10;99.90;;;;;;1942082;72;22298;-75
2022/08/04 06:39:00;;;;;;;5.25;2.72;;;26.30;99.90;;;;;;1910675;74;21096;-75
2022/08/04 06:41:53;;;;;;;6.72;2.40;;;26.30;99.90;;;;;;1894554;75;21156;-75
2022/08/04 06:47:30;;;;;;;6.37;2.65;;;26.40;99.90;;;;;;1918313;72;22371;-75
2022/08/04 06:50:26;;;;;;;6.65;2.67;;;26.60;99.90;;;;;;1905122;75;21157;-75
2022/08/04 06:53:19;;;;;;;8.33;2.70;;;26.60;99.90;;;;;;1882338;75;21113;-75
2022/08/04 06:56:13;;;;;;;12.47;2.85;;;26.70;99.90;;;;;;1911875;75;21070;-75
2022/08/04 06:59:05;;;;;;;7.85;2.58;;;26.70;99.90;;;;;;1918082;74;21055;-75
2022/08/04 07:01:59;;;;;;;3.65;2.40;;;26.70;99.90;;;;;;1917355;75;21116;-75
2022/08/04 07:04:50;;;;;;;9.48;3.95;;;26.80;99.90;;;;;;1910814;75;21549;-75
2022/08/04 07:07:43;;;;;;;7.37;2.65;;;26.80;99.90;;;;;;1894729;75;21125;-77
2022/08/04 07:10:37;;;;;;;3.65;2.20;;;27.00;99.90;;;;;;1900953;75;21058;-77
2022/08/04 07:13:30;;;;;;;3.20;2.10;;;27.10;99.90;;;;;;1889905;75;21141;-76
2022/08/04 07:16:23;;;;;;;6.25;2.27;;;27.20;99.90;;;;;;1902886;75;21069;-77
2022/08/04 07:19:21;;;;;;;5.97;2.20;;;27.30;99.90;;;;;;1890338;74;21082;-77
2022/08/04 07:22:13;;;;;;;5.35;2.70;;;27.30;99.90;;;;;;1917946;74;21102;-77
2022/08/04 07:25:11;;;;;;;3.72;2.35;;;27.40;99.90;;;;;;1881443;75;21125;-77
2022/08/04 07:30:45;;;;;;;3.17;2.10;;;27.60;99.90;;;;;;1948178;72;22237;-77
2022/08/04 07:33:38;;;;;;;5.37;2.62;;;27.70;99.90;;;;;;1917328;74;21099;-77
2022/08/04 07:36:29;;;;;;;3.87;2.20;;;27.80;99.90;;;;;;1894805;75;21195;-77
2022/08/04 07:42:02;;;;;;;4.35;2.35;;;27.90;99.90;;;;;;1953830;72;22246;-76
2022/08/04 07:47:39;;;;;;;3.92;2.30;;;28.00;99.90;;;;;;1938856;72;22177;-77
2022/08/04 07:50:32;;;;;;;3.27;2.87;;;28.00;99.90;;;;;;1916052;75;21129;-77
2022/08/04 07:53:33;;;;;;;4.78;2.77;;;28.10;99.90;;;;;;1891206;75;21199;-78
2022/08/04 07:56:28;;;;;;;3.02;2.50;;;28.20;99.60;;;;;;1886873;75;21137;-77
2022/08/04 07:59:19;;;;;;;4.53;2.50;;;28.30;99.50;;;;;;1904445;75;21083;-78
2022/08/04 08:02:13;;;;;;;3.50;2.25;;;28.40;99.40;;;;;;1891614;75;21086;-78
2022/08/04 08:05:07;;;;;;;4.33;2.33;;;28.50;99.20;;;;;;1913002;75;21503;-77
2022/08/04 08:07:59;;;;;;;2.83;2.20;;;28.50;98.80;;;;;;1901810;75;21162;-77
2022/08/04 08:10:50;;;;;;;4.30;2.40;;;28.60;98.60;;;;;;1893180;75;21047;-77
2022/08/04 08:13:44;;;;;;;4.42;2.30;;;28.60;98.40;;;;;;1884484;75;21102;-77
2022/08/04 08:16:36;;;;;;;4.33;2.58;;;28.70;98.30;;;;;;1884535;75;21098;-77
2022/08/04 08:19:30;;;;;;;3.27;2.33;;;28.80;98.10;;;;;;1895389;75;21113;-77
2022/08/04 08:22:21;;;;;;;5.00;2.83;;;28.90;98.00;;;;;;1884437;75;21106;-77
2022/08/04 08:25:13;;;;;;;3.40;2.35;;;29.00;97.80;;;;;;1894842;75;21639;-76
2022/08/04 08:30:44;;;;;;;3.62;2.70;;;29.20;97.20;;;;;;1934364;72;22115;-76
2022/08/04 08:33:37;;;;;;;4.08;2.20;;;29.20;97.10;;;;;;1906179;75;21135;-76
2022/08/04 08:36:31;;;;;;;5.03;2.22;;;29.30;96.80;;;;;;1902688;75;21127;-77
2022/08/04 08:39:26;;;;;;;3.90;2.42;;;29.40;96.20;;;;;;1896933;75;21209;-77
2022/08/04 08:42:45;;;;;;;6.53;2.60;;;29.40;96.00;;;;;;1884536;75;21080;-75
2022/08/04 08:52:00;;;;;;;5.17;2.72;;;29.60;95.10;;;;;;1934085;72;22303;-75
2022/08/04 09:00:48;;;;;;;3.58;2.33;;;29.60;94.60;;;;;;1959032;72;22117;-77
2022/08/04 09:06:50;;;;;;;3.90;2.90;;;29.80;93.90;;;;;;1929902;72;22137;-76
2022/08/04 09:12:59;;;;;;;3.75;2.70;;;30.00;93.80;;;;;;1943143;72;22165;-76
2022/08/04 09:16:03;;;;;;;5.83;2.55;;;30.10;93.70;;;;;;1909226;75;21159;-77
2022/08/04 09:18:57;;;;;;;3.00;2.65;;;30.40;93.20;;;;;;1896771;75;21063;-77
2022/08/04 09:21:56;;;;;;;4.05;2.55;;;30.40;92.80;;;;;;1907571;75;21200;-77
2022/08/04 09:24:53;;;;;;;4.87;2.77;;;30.50;93.00;;;;;;1895132;75;21602;-77
2022/08/04 09:27:53;;;;;;;5.60;2.72;;;30.70;92.90;;;;;;1915353;75;21086;-77
2022/08/04 09:30:54;;;;;;;3.65;2.80;;;30.80;92.70;;;;;;1888577;75;21095;-78
2022/08/04 09:33:50;;;;;;;3.20;2.75;;;30.90;92.50;;;;;;1901870;75;21649;-78
2022/08/04 09:36:44;;;;;;;6.80;2.95;;;31.00;92.10;;;;;;1893313;75;21055;-78
2022/08/04 09:39:39;;;;;;;5.80;2.77;;;30.90;91.70;;;;;;1889830;75;21101;-78
2022/08/04 09:42:38;;;;;;;4.62;2.87;;;31.00;91.60;;;;;;1884662;75;21079;-77
2022/08/04 09:45:42;;;;;;;4.10;2.70;;;31.10;91.70;;;;;;1898754;75;21681;-76
2022/08/04 09:48:42;;;;;;;5.35;3.02;;;31.20;91.40;;;;;;1889797;75;21608;-76
2022/08/04 09:51:46;;;;;;;7.20;3.02;;;31.20;91.50;;;;;;1895556;75;21139;-76
2022/08/04 09:54:52;;;;;;;2.90;2.70;;;31.30;91.70;;;;;;1898209;75;21089;-75
2022/08/04 09:57:52;;;;;;;8.73;3.40;;;31.40;91.20;;;;;;1896346;75;21067;-75
2022/08/04 10:00:49;;;;;;;4.62;3.22;;;31.40;91.20;;;;;;1884671;75;21168;-75
2022/08/04 10:06:58;;;;;;;8.28;2.95;;;31.60;91.60;;;;;;1936311;72;22224;-75
2022/08/04 10:09:54;;;;;;;5.95;3.25;;;31.60;92.00;;;;;;1898579;75;21650;-77
2022/08/04 10:12:53;;;;;;;5.70;3.07;;;31.80;92.10;;;;;;1897881;75;21553;-77
2022/08/04 10:15:59;;;;;;;8.65;3.15;;;31.90;91.70;;;;;;1894913;75;21090;-77
2022/08/04 10:19:01;;;;;;;5.80;3.10;;;31.90;92.10;;;;;;1888194;75;21121;-77
2022/08/04 10:22:15;;;;;;;7.97;3.50;;;32.00;91.70;;;;;;1905720;75;21058;-77
2022/08/04 10:25:17;;;;;;;6.47;3.15;;;32.00;91.40;;;;;;1884475;75;21116;-77
2022/08/04 10:30:54;;;;;;;4.42;2.90;;;32.20;91.10;;;;;;1944229;72;22161;-77
2022/08/04 10:33:49;;;;;;;4.62;2.90;;;32.40;90.50;;;;;;1903710;75;21106;-77
2022/08/04 10:36:47;;;;;;;6.97;2.75;;;32.50;90.20;;;;;;1893613;75;21130;-77
2022/08/04 10:42:35;;;;;;;2.77;2.52;;;32.70;89.30;;;;;;1929092;72;22196;-77
2022/08/04 10:45:38;;;;;;;2.80;2.30;;;32.90;87.80;;;;;;1915141;75;21087;-77
2022/08/04 10:51:18;;;;;;;4.08;2.12;;;33.10;86.30;;;;;;1933557;72;22239;-77
2022/08/04 10:54:13;;;;;;;4.95;2.12;;;33.10;86.20;;;;;;1917077;74;21092;-77
2022/08/04 10:57:10;;;;;;;4.20;2.17;;;33.10;85.40;;;;;;1884843;75;21050;-77
2022/08/04 11:00:05;;;;;;;2.08;1.87;;;33.30;84.40;;;;;;1885803;75;21086;-77
2022/08/04 11:03:00;;;;;;;4.72;1.70;;;33.40;84.10;;;;;;1906232;75;21166;-78
2022/08/04 11:08:34;;;;;;;2.58;1.77;;;33.50;80.60;;;;;;1927923;72;23084;-77
2022/08/04 11:11:34;;;;;;;7.55;2.30;;;33.60;80.10;;;;;;1886374;75;21174;-78
2022/08/04 11:14:37;;;;;;;6.45;2.33;;;33.80;79.10;;;;;;1883496;76;21283;-77
2022/08/04 11:17:40;;;;;;;6.33;2.58;;;33.80;77.80;;;;;;1900407;75;21093;-77
2022/08/04 11:20:39;;;;;;;7.42;2.58;;;33.90;77.90;;;;;;1902249;75;21062;-75
2022/08/04 11:23:54;;;;;;;8.48;2.50;;;34.10;76.90;;;;;;1882407;75;21101;-77
2022/08/04 11:27:08;;;;;;;3.65;2.10;;;34.30;76.30;;;;;;1903338;75;21098;-77
2022/08/04 11:30:22;;;;;;;3.90;1.85;;;34.40;74.90;;;;;;1884654;75;21581;-77
2022/08/04 11:36:09;;;;;;;2.65;2.10;;;34.70;72.50;;;;;;1937410;72;22689;-77
2022/08/04 11:41:56;;;;;;;4.65;2.15;;;34.90;71.80;;;;;;1963603;72;22110;-77
2022/08/04 11:44:54;;;;;;;5.78;2.15;;;35.00;71.20;;;;;;1945003;72;21136;-77
2022/08/04 11:47:49;;;;;;;4.53;2.02;;;35.10;70.70;;;;;;1924864;72;21082;-77
2022/08/04 11:50:43;;;;;;;2.22;2.05;;;35.20;70.40;;;;;;1933350;73;21179;-77
2022/08/04 12:02:43;;;;;;;2.87;2.00;;;35.30;69.10;;;;;;1946554;72;22246;-77
2022/08/04 12:05:37;;;;;;;3.05;2.00;;;35.10;68.70;;;;;;1899923;75;21054;-78
2022/08/04 12:08:35;;;;;;;4.35;2.40;;;35.10;69.00;;;;;;1884943;75;21167;-78
2022/08/04 12:11:57;;;;;;;2.72;2.00;;;34.90;68.70;;;;;;1891426;75;21117;-78
2022/08/04 12:15:15;;;;;;;3.27;2.30;;;35.20;68.20;;;;;;1897588;75;21084;-78
2022/08/04 12:18:25;;;;;;;3.80;2.33;;;35.40;68.90;;;;;;1884487;75;21066;-78
2022/08/04 12:24:36;;;;;;;3.37;1.80;;;35.50;68.10;;;;;;1884438;76;21121;-77
2022/08/04 12:27:32;;;;;;;4.78;1.70;;;35.60;67.10;;;;;;1884419;76;21217;-78
2022/08/04 12:30:25;;;;;;;7.70;1.98;;;35.70;66.90;;;;;;1886828;75;21175;-78
2022/08/04 12:36:01;;;;;;;2.67;1.90;;;35.90;65.10;;;;;;1939485;72;22192;-77
2022/08/04 12:41:45;;;;;;;2.45;2.05;;;35.90;64.20;;;;;;1941648;72;22184;-77
2022/08/04 12:44:48;;;;;;;3.40;2.02;;;36.00;64.30;;;;;;1914711;75;21120;-77
2022/08/04 12:47:39;;;;;;;3.05;2.05;;;36.10;63.10;;;;;;1857136;76;21117;-77
2022/08/04 12:50:33;;;;;;;4.67;2.67;;;36.10;62.80;;;;;;1883266;75;21622;-77
2022/08/04 12:56:05;;;;;;;1.90;1.80;;;36.50;61.40;;;;;;1931651;72;22121;-77
2022/08/04 13:01:51;;;;;;;2.83;1.77;;;36.60;60.80;;;;;;1969728;72;22107;-77
2022/08/04 13:05:00;;;;;;;2.65;1.70;;;36.50;60.70;;;;;;1917184;75;21078;-78
2022/08/04 13:07:53;;;;;;;3.22;1.70;;;36.40;60.10;;;;;;1921443;73;21117;-78
2022/08/04 13:10:50;;;;;;;2.42;1.92;;;36.30;59.80;;;;;;1926177;73;21035;-78
2022/08/04 13:13:53;;;;;;;5.30;1.98;;;36.20;59.90;;;;;;1918602;73;21128;-78
2022/08/04 13:16:53;;;;;;;3.05;1.87;;;36.10;59.60;;;;;;1917573;75;21128;-78
2022/08/04 13:19:56;;;;;;;2.37;1.80;;;36.00;59.40;;;;;;1919783;73;21097;-78
2022/08/04 13:23:00;;;;;;;3.05;1.90;;;35.90;59.60;;;;;;1931688;73;21059;-78
2022/08/04 13:25:54;;;;;;;4.03;1.70;;;36.00;59.70;;;;;;1923667;73;21051;-78
2022/08/04 13:28:49;;;;;;;3.90;1.90;;;36.00;59.30;;;;;;1926585;73;21679;-78
2022/08/04 13:31:43;;;;;;;4.87;1.77;;;36.10;59.30;;;;;;1934438;73;21215;-78
2022/08/04 13:37:16;;;;;;;5.95;2.00;;;36.20;59.30;;;;;;1941654;72;22201;-77
2022/08/04 13:40:13;;;;;;;2.50;1.82;;;36.20;59.10;;;;;;1903806;74;21071;-77
2022/08/04 13:45:46;;;;;;;4.65;1.70;;;36.10;58.90;;;;;;1955343;72;22203;-78
2022/08/04 13:48:40;;;;;;;2.92;1.77;;;36.10;59.00;;;;;;1939885;73;21131;-79
2022/08/04 13:51:32;;;;;;;5.10;1.77;;;36.00;58.80;;;;;;1926756;73;21151;-78
2022/08/04 13:54:32;;;;;;;2.52;1.52;;;35.90;59.00;;;;;;1917265;75;21483;-78
2022/08/04 13:57:40;;;;;;;2.15;1.70;;;35.90;59.50;;;;;;1932192;73;21054;-78
2022/08/04 14:00:53;;;;;;;3.92;2.10;;;35.90;59.30;;;;;;1931493;73;21084;-78
2022/08/04 14:06:34;;;;;;;3.65;2.00;;;35.90;59.30;;;;;;1948380;72;22562;-77
2022/08/04 14:09:26;;;;;;;2.00;1.90;;;35.90;59.90;;;;;;1919369;73;21052;-77
2022/08/04 14:12:20;;;;;;;2.47;2.17;;;35.90;60.40;;;;;;1924561;73;21122;-78
2022/08/04 14:15:32;;;;;;;2.35;2.15;;;35.80;61.30;;;;;;1923376;73;21099;-77
2022/08/04 14:18:27;;;;;;;3.22;2.45;;;35.80;61.60;;;;;;1927765;73;21102;-78
2022/08/04 14:21:19;;;;;;;3.00;2.70;;;35.90;62.00;;;;;;1917478;75;21090;-78
2022/08/04 14:24:10;;;;;;;2.72;2.52;;;35.80;62.80;;;;;;1936911;73;21616;-78
2022/08/04 14:27:02;;;;;;;4.92;2.77;;;35.80;64.00;;;;;;1923892;73;21661;-78
2022/08/04 14:29:54;;;;;;;4.67;3.00;;;35.80;65.10;;;;;;1936844;73;21050;-78
2022/08/04 14:32:57;;;;;;;4.33;2.65;;;35.70;66.00;;;;;;1917487;75;21188;-78
2022/08/04 14:35:58;;;;;;;5.37;2.67;;;35.70;66.50;;;;;;1925828;73;21080;-78
2022/08/04 14:38:54;;;;;;;3.83;2.60;;;35.70;67.20;;;;;;1925111;73;21063;-78
2022/08/04 14:41:48;;;;;;;2.50;2.30;;;35.60;67.40;;;;;;1917865;75;21169;-77
2022/08/04 14:44:57;;;;;;;5.33;2.52;;;35.70;67.90;;;;;;1917488;75;21157;-78
2022/08/04 14:47:55;;;;;;;2.83;2.40;;;35.90;67.90;;;;;;1926378;73;21495;-78
2022/08/04 14:50:53;;;;;;;3.85;3.55;;;36.40;66.70;;;;;;1921783;73;21102;-77
2022/08/04 14:56:24;;;;;;;2.95;2.65;;;36.20;66.50;;;;;;1949551;72;22131;-78
2022/08/04 14:59:16;;;;;;;3.10;2.80;;;36.10;66.80;;;;;;1910187;75;21157;-77
2022/08/04 15:02:09;;;;;;;3.25;2.40;;;36.10;67.30;;;;;;1897962;75;21051;-78
2022/08/04 15:05:02;;;;;;;6.35;2.60;;;36.20;66.80;;;;;;1906527;75;21047;-78
2022/08/04 15:07:55;;;;;;;2.50;2.05;;;36.30;66.80;;;;;;1883984;75;21125;-79
2022/08/04 15:10:47;;;;;;;4.53;2.85;;;36.60;66.80;;;;;;1884943;75;21054;-78
2022/08/04 15:13:39;;;;;;;2.80;2.40;;;36.70;67.50;;;;;;1887124;75;21118;-78
2022/08/04 15:16:32;;;;;;;5.35;2.50;;;37.20;66.90;;;;;;1906607;75;21124;-78
2022/08/04 15:19:24;;;;;;;4.37;2.58;;;37.20;67.00;;;;;;1901848;75;21112;-78
2022/08/04 15:22:15;;;;;;;3.42;2.70;;;36.90;67.90;;;;;;1895255;75;21095;-78
2022/08/04 15:25:10;;;;;;;2.42;2.22;;;36.60;67.80;;;;;;1907882;75;21047;-76
2022/08/04 15:28:05;;;;;;;3.95;2.30;;;36.40;67.80;;;;;;1884666;75;21114;-76
2022/08/04 15:30:59;;;;;;;4.05;2.17;;;36.40;67.40;;;;;;1900256;75;21510;-76
2022/08/04 15:33:51;;;;;;;3.72;2.20;;;36.30;67.30;;;;;;1908709;75;21144;-76
2022/08/04 15:36:50;;;;;;;3.05;2.00;;;36.20;66.90;;;;;;1912067;75;21470;-76
2022/08/04 15:39:48;;;;;;;2.52;2.15;;;36.20;66.90;;;;;;1886740;75;21123;-76
2022/08/04 15:45:29;;;;;;;2.87;2.47;;;36.90;65.30;;;;;;1939574;72;23913;-76
2022/08/04 15:48:27;;;;;;;2.30;2.10;;;36.70;65.90;;;;;;1917296;74;21117;-77
2022/08/04 15:51:26;;;;;;;2.10;2.00;;;36.60;65.80;;;;;;1905391;74;21132;-76
2022/08/04 15:54:25;;;;;;;3.47;1.90;;;36.40;65.50;;;;;;1910568;75;21109;-76
2022/08/04 15:57:19;;;;;;;2.15;1.95;;;36.40;65.50;;;;;;1883643;75;21179;-76
2022/08/04 16:00:13;;;;;;;2.50;1.98;;;36.90;65.30;;;;;;1915390;75;21164;-76
2022/08/04 16:03:08;;;;;;;2.22;2.02;;;37.00;64.80;;;;;;1902330;75;21197;-76
2022/08/04 16:06:03;;;;;;;3.30;2.00;;;37.20;64.50;;;;;;1894770;75;21091;-76
2022/08/04 16:09:04;;;;;;;2.42;2.20;;;39.00;62.40;;;;;;1900444;75;21074;-76
2022/08/04 16:11:56;;;;;;;3.15;2.02;;;40.20;59.90;;;;;;1898869;75;21157;-76
2022/08/04 16:14:48;;;;;;;3.12;2.50;;;39.30;60.00;;;;;;1915095;74;21086;-76
2022/08/04 16:17:44;;;;;;;3.20;2.15;;;38.00;61.50;;;;;;1911070;75;21188;-76
2022/08/04 16:20:52;;;;;;;3.90;2.12;;;37.30;63.20;;;;;;1903327;75;21097;-76
2022/08/04 16:24:12;;;;;;;2.70;2.20;;;36.70;64.10;;;;;;1893656;75;21050;-76
2022/08/04 16:27:05;;;;;;;3.33;2.47;;;36.30;65.10;;;;;;1910409;73;21163;-76
2022/08/04 16:32:43;;;;;;;4.80;2.62;;;36.50;65.90;;;;;;1921695;72;22164;-77
2022/08/04 16:35:37;;;;;;;2.90;2.70;;;36.40;66.30;;;;;;1908029;73;21116;-77
2022/08/04 16:41:12;;;;;;;2.52;2.33;;;36.20;66.50;;;;;;1951931;72;22102;-77
2022/08/04 16:44:31;;;;;;;2.45;2.22;;;36.10;66.90;;;;;;1885919;75;21568;-76
2022/08/04 16:47:47;;;;;;;2.60;2.30;;;35.80;67.40;;;;;;1911098;75;21160;-76
2022/08/04 16:50:49;;;;;;;2.55;2.35;;;35.80;68.00;;;;;;1877457;75;21612;-75
2022/08/04 16:56:21;;;;;;;2.85;2.15;;;36.00;69.20;;;;;;1942326;72;22157;-78
2022/08/04 16:59:14;;;;;;;2.50;2.30;;;36.70;68.90;;;;;;1895255;74;21162;-75
2022/08/04 17:02:08;;;;;;;2.80;2.20;;;37.60;67.70;;;;;;1893486;75;21056;-76
2022/08/04 17:04:59;;;;;;;2.60;2.40;;;37.00;68.40;;;;;;1891739;75;21110;-77
2022/08/04 17:07:53;;;;;;;3.25;2.30;;;36.20;69.40;;;;;;1903495;75;21066;-75
2022/08/04 17:10:48;;;;;;;2.73;2.53;;;35.70;70.30;;;;;;1896754;75;21592;-76
2022/08/04 17:13:43;;;;;;;2.60;2.40;;;35.20;70.90;;;;;;1884364;75;21117;-76
2022/08/04 17:16:39;;;;;;;3.55;2.60;;;34.90;71.10;;;;;;1889457;75;21135;-76
2022/08/04 17:19:32;;;;;;;3.30;2.40;;;34.80;71.10;;;;;;1905959;75;21172;-76
2022/08/04 17:22:25;;;;;;;2.33;2.12;;;35.30;70.20;;;;;;1906569;75;21133;-76
2022/08/04 17:25:16;;;;;;;3.92;2.55;;;36.10;68.40;;;;;;1902642;75;21051;-76
2022/08/04 17:28:07;;;;;;;2.50;2.05;;;36.70;67.00;;;;;;1897117;75;21488;-76
2022/08/04 17:31:04;;;;;;;3.02;2.40;;;37.40;65.20;;;;;;1917330;75;21203;-76
2022/08/04 17:33:58;;;;;;;3.70;2.27;;;37.40;65.20;;;;;;1895148;75;21235;-76
2022/08/04 17:36:49;;;;;;;2.50;2.30;;;37.30;65.10;;;;;;1895788;75;21101;-76
2022/08/04 17:39:42;;;;;;;2.60;2.12;;;36.90;65.50;;;;;;1884491;76;21118;-76
2022/08/04 17:42:38;;;;;;;3.52;2.17;;;36.70;66.00;;;;;;1895467;75;21062;-76
2022/08/04 17:45:33;;;;;;;2.30;2.10;;;36.70;65.70;;;;;;1887963;75;21109;-76